Big Bear Station Historical Data
 
Daily Summary for October 23, 2018 Units:  English    Metric   Both
Next Day »
Daily Weekly Monthly Yearly Custom
  Current: High: Low: Average:
Temperature: 44.2 °F 63.1 °F 33.4 °F 45.4 °F
Dew Point: 36.1 °F 42 °F 32.6 °F 37 °F
Humidity: 73% 97% 45% 76%
Wind Speed: 0mph 5.3mph 0mph 0.5mph
Wind Gust: -999mph -999mph - -
WindCalm - - West
Pressure: 23.50 in 23.52 in 23.46 in -
Precipitation: 0 in      
Historical Graphs
 
 
Tabular Data for October 23, 2018
Time Temperature Dew Point Pressure Wind Wind Speed Wind Gust Humidity Rainfall Rate (Hourly)
00:10 38.7 °F 34.9 °F 23.49 in Calm   -999 mph 86% 0.00 in
00:26 38.5 °F 35 °F 23.49 in Calm   -999 mph 87% 0.00 in
00:41 38.1 °F 34.9 °F 23.49 in Calm   -999 mph 88% 0.00 in
00:56 37.8 °F 34.6 °F 23.48 in Calm   -999 mph 88% 0.00 in
01:11 37.8 °F 34.9 °F 23.49 in Calm   -999 mph 89% 0.00 in
01:26 37.2 °F 34.3 °F 23.49 in Calm   -999 mph 89% 0.00 in
01:42 37 °F 34.3 °F 23.49 in Calm   -999 mph 90% 0.00 in
01:57 36.5 °F 33.8 °F 23.48 in Calm   -999 mph 90% 0.00 in
02:12 36.3 °F 34.2 °F 23.48 in Calm   -999 mph 92% 0.00 in
02:27 36.3 °F 34.2 °F 23.49 in Calm   -999 mph 92% 0.00 in
02:42 36.5 °F 34.1 °F 23.49 in Calm   -999 mph 91% 0.00 in
02:58 36 °F 33.6 °F 23.49 in Calm   -999 mph 91% 0.00 in
03:13 36 °F 33.9 °F 23.48 in Calm   -999 mph 92% 0.00 in
03:28 36 °F 34.2 °F 23.48 in Calm   -999 mph 93% 0.00 in
03:43 35.8 °F 34 °F 23.48 in Calm   -999 mph 93% 0.00 in
03:58 35.4 °F 33.8 °F 23.48 in Calm   -999 mph 94% 0.00 in
04:14 35.1 °F 33.5 °F 23.48 in Calm   -999 mph 94% 0.00 in
04:29 34.9 °F 33.3 °F 23.48 in Calm   -999 mph 94% 0.00 in
04:44 34.7 °F 33.2 °F 23.48 in Calm   -999 mph 94% 0.00 in
04:59 34.7 °F 33.4 °F 23.48 in Calm   -999 mph 95% 0.00 in
05:15 34.5 °F 33.2 °F 23.48 in Calm   -999 mph 95% 0.00 in
05:30 34.3 °F 33.3 °F 23.49 in Calm   -999 mph 96% 0.00 in
05:45 34 °F 33 °F 23.48 in Calm   -999 mph 96% 0.00 in
06:00 34.2 °F 33.2 °F 23.49 in Calm   -999 mph 96% 0.00 in
06:15 34 °F 33 °F 23.49 in Calm   -999 mph 96% 0.00 in
06:31 34 °F 33.2 °F 23.49 in Calm   -999 mph 97% 0.00 in
06:46 33.6 °F 32.8 °F 23.49 in Calm   -999 mph 97% 0.00 in
07:01 33.6 °F 32.8 °F 23.50 in Calm   -999 mph 97% 0.00 in
07:16 33.4 °F 32.6 °F 23.50 in Calm   -999 mph 97% 0.00 in
07:31 33.6 °F 32.8 °F 23.50 in Calm   -999 mph 97% 0.00 in
07:47 33.4 °F 32.6 °F 23.51 in Calm   -999 mph 97% 0.00 in
08:02 33.6 °F 32.8 °F 23.51 in Calm   -999 mph 97% 0.00 in
08:17 34 °F 33.2 °F 23.51 in Calm   -999 mph 97% 0.00 in
08:32 34.9 °F 34.1 °F 23.51 in Calm   -999 mph 97% 0.00 in
08:47 36.3 °F 35.5 °F 23.51 in Calm   -999 mph 97% 0.00 in
09:03 37.2 °F 36.4 °F 23.52 in Calm   -999 mph 97% 0.00 in
09:18 38.3 °F 37.5 °F 23.52 in Calm   -999 mph 97% 0.00 in
09:33 39.9 °F 38.9 °F 23.52 in Calm   -999 mph 96% 0.00 in
09:48 43.9 °F 40.9 °F 23.52 in Calm   -999 mph 89% 0.00 in
10:04 45 °F 41.4 °F 23.52 in Calm   -999 mph 87% 0.00 in
10:19 49.6 °F 42 °F 23.52 in Calm   -999 mph 75% 0.00 in
10:34 52.2 °F 41.6 °F 23.52 in Calm   -999 mph 67% 0.00 in
10:49 55.2 °F 40.2 °F 23.52 in Calm   -999 mph 57% 0.00 in
11:05 55.8 °F 39.9 °F 23.51 in Calm   -999 mph 55% 0.00 in
11:20 57.2 °F 41.2 °F 23.51 in NW 3.2 mph -999 mph 55% 0.00 in
11:35 58.6 °F 41 °F 23.51 in NW 4.7 mph -999 mph 52% 0.00 in
11:51 59 °F 40.4 °F 23.51 in North 4.7 mph -999 mph 50% 0.00 in
12:06 58.8 °F 39.7 °F 23.50 in NNW 3.7 mph -999 mph 49% 0.00 in
12:36 60.4 °F 40.1 °F 23.49 in NW 5.3 mph -999 mph 47% 0.00 in
12:52 61.9 °F 40.3 °F 23.49 in NNW 3.7 mph -999 mph 45% 0.00 in
13:07 63.1 °F 41.4 °F 23.49 in NNW 4.7 mph -999 mph 45% 0.00 in
13:22 62.1 °F 41.6 °F 23.48 in WNW 2.7 mph -999 mph 47% 0.00 in
13:37 61.3 °F 42 °F 23.48 in Calm   -999 mph 49% 0.00 in
13:53 61.7 °F 41.8 °F 23.47 in SE 1.7 mph -999 mph 48% 0.00 in
14:08 61.9 °F 41.4 °F 23.47 in Calm   -999 mph 47% 0.00 in
14:23 61.2 °F 41.9 °F 23.47 in SSE 1.1 mph -999 mph 49% 0.00 in
14:38 61.3 °F 41.4 °F 23.46 in East 1.7 mph -999 mph 48% 0.00 in
14:53 60.6 °F 40.8 °F 23.47 in Calm   -999 mph 48% 0.00 in
15:09 59.4 °F 40.8 °F 23.47 in Calm   -999 mph 50% 0.00 in
15:24 58.6 °F 41 °F 23.46 in Calm   -999 mph 52% 0.00 in
15:39 57.6 °F 40.1 °F 23.46 in Calm   -999 mph 52% 0.00 in
15:54 56.8 °F 40.3 °F 23.47 in Calm   -999 mph 54% 0.00 in
16:09 56.1 °F 40.2 °F 23.47 in Calm   -999 mph 55% 0.00 in
16:25 54.9 °F 40 °F 23.47 in Calm   -999 mph 57% 0.00 in
16:40 54 °F 40.9 °F 23.48 in Calm   -999 mph 61% 0.00 in
16:56 53.1 °F 40.4 °F 23.47 in Calm   -999 mph 62% 0.00 in
17:11 52.7 °F 40.5 °F 23.48 in Calm   -999 mph 63% 0.00 in
17:27 52.7 °F 39.2 °F 23.48 in Calm   -999 mph 60% 0.00 in
17:42 52.2 °F 38.3 °F 23.48 in Calm   -999 mph 59% 0.00 in
17:57 51.3 °F 38.3 °F 23.47 in Calm   -999 mph 61% 0.00 in
18:12 49.6 °F 37.9 °F 23.48 in Calm   -999 mph 64% 0.00 in
18:28 48.7 °F 37.8 °F 23.48 in Calm   -999 mph 66% 0.00 in
18:43 48 °F 37.2 °F 23.48 in Calm   -999 mph 66% 0.00 in
18:58 47.3 °F 36.9 °F 23.48 in Calm   -999 mph 67% 0.00 in
19:13 46.8 °F 36.4 °F 23.49 in Calm   -999 mph 67% 0.00 in
19:29 45.9 °F 36.7 °F 23.49 in Calm   -999 mph 70% 0.00 in
19:44 45.1 °F 36.3 °F 23.50 in Calm   -999 mph 71% 0.00 in
19:59 44.2 °F 36.1 °F 23.50 in Calm   -999 mph 73% 0.00 in
Big Bear CA Weather